Time;durP1;ratioP1;P1;durP2;ratioP2;P2;SDS_P1;SDS_P2;PMS_P1;PMS_P2;Temp;Humidity;BMP_temperature;BMP_pressure;BME280_temperature;BME280_humidity;BME280_pressure;Samples;Min_cycle;Max_cycle;Signal;HPM_P1;HPM_P2
2023/12/26 00:01:54;;;;;;;0.50;0.30;;;;;;;;;;5029459;28;20033;-78
2023/12/26 00:04:20;;;;;;;1.27;0.35;;;;;;;;;;5023904;28;20100;-78
2023/12/26 00:06:45;;;;;;;0.68;0.30;;;;;;;;;;5028106;28;20568;-78
2023/12/26 00:09:15;;;;;;;0.77;0.30;;;;;;;;;;5023751;28;20034;-77
2023/12/26 00:11:41;;;;;;;2.10;0.20;;;;;;;;;;5027825;28;20037;-78
2023/12/26 00:14:06;;;;;;;0.52;0.30;;;;;;;;;;5029191;28;20033;-78
2023/12/26 00:16:31;;;;;;;0.50;0.20;;;;;;;;;;5029416;28;20673;-77
2023/12/26 00:18:57;;;;;;;1.45;0.38;;;;;;;;;;5025064;28;20307;-77
2023/12/26 00:21:22;;;;;;;1.58;0.38;;;;;;;;;;5026310;28;20086;-77
2023/12/26 00:23:47;;;;;;;1.77;0.32;;;;;;;;;;5021676;28;20030;-77
2023/12/26 00:26:12;;;;;;;0.53;0.33;;;;;;;;;;5030002;28;20032;-77
2023/12/26 00:28:39;;;;;;;0.70;0.35;;;;;;;;;;5030508;28;20347;-77
2023/12/26 00:31:04;;;;;;;0.83;0.27;;;;;;;;;;5026090;28;20064;-77
2023/12/26 00:33:29;;;;;;;1.75;0.63;;;;;;;;;;5030102;28;20641;-78
2023/12/26 00:35:56;;;;;;;0.40;0.10;;;;;;;;;;5020826;28;20026;-77
2023/12/26 00:38:22;;;;;;;0.85;0.20;;;;;;;;;;5030031;28;20029;-77
2023/12/26 00:40:48;;;;;;;1.65;0.17;;;;;;;;;;5030140;28;20125;-77
2023/12/26 00:43:13;;;;;;;0.52;0.22;;;;;;;;;;5009789;28;20058;-78
2023/12/26 00:45:38;;;;;;;1.05;0.20;;;;;;;;;;5027352;28;20033;-77
2023/12/26 00:48:04;;;;;;;0.32;0.10;;;;;;;;;;5021876;28;20167;-77
2023/12/26 00:50:29;;;;;;;0.47;0.13;;;;;;;;;;5025285;28;20148;-77
2023/12/26 00:52:54;;;;;;;0.20;0.10;;;;;;;;;;5021736;28;20064;-78
2023/12/26 00:55:19;;;;;;;0.57;0.20;;;;;;;;;;5031457;28;20033;-77
2023/12/26 00:57:45;;;;;;;0.77;0.30;;;;;;;;;;5033974;28;20036;-77
2023/12/26 01:00:10;;;;;;;0.38;0.10;;;;;;;;;;5031227;28;20060;-77
2023/12/26 01:02:36;;;;;;;0.40;0.10;;;;;;;;;;5010229;28;20819;-77
2023/12/26 01:05:01;;;;;;;0.85;0.20;;;;;;;;;;5024882;28;20112;-77
2023/12/26 01:07:27;;;;;;;0.40;0.10;;;;;;;;;;5031857;28;20109;-77
2023/12/26 01:09:52;;;;;;;0.25;0.00;;;;;;;;;;5033334;28;20021;-77
2023/12/26 01:12:18;;;;;;;0.32;0.10;;;;;;;;;;5030748;28;20025;-77
2023/12/26 01:14:43;;;;;;;0.25;0.05;;;;;;;;;;5010992;28;20033;-77
2023/12/26 01:17:09;;;;;;;0.20;0.00;;;;;;;;;;5024573;28;20033;-78
2023/12/26 01:19:34;;;;;;;0.00;0.00;;;;;;;;;;5029548;28;20025;-77
2023/12/26 01:22:00;;;;;;;0.68;0.03;;;;;;;;;;5030655;28;20383;-77
2023/12/26 01:24:25;;;;;;;0.20;0.00;;;;;;;;;;5032785;28;20021;-77
2023/12/26 01:26:50;;;;;;;0.10;0.00;;;;;;;;;;5011654;28;20109;-77
2023/12/26 01:29:16;;;;;;;2.20;0.10;;;;;;;;;;5034835;28;20497;-77
2023/12/26 01:31:42;;;;;;;0.13;0.00;;;;;;;;;;5024612;28;20379;-77
2023/12/26 01:34:07;;;;;;;0.93;0.10;;;;;;;;;;5022789;28;20034;-76
2023/12/26 01:36:32;;;;;;;0.25;0.00;;;;;;;;;;5033460;28;20029;-76
2023/12/26 01:38:57;;;;;;;0.43;0.10;;;;;;;;;;5029394;28;20026;-76
2023/12/26 01:41:23;;;;;;;0.20;0.10;;;;;;;;;;5029554;28;20034;-76
2023/12/26 01:43:48;;;;;;;1.50;0.10;;;;;;;;;;5026479;28;20099;-76
2023/12/26 01:46:15;;;;;;;0.20;0.15;;;;;;;;;;5024524;28;20268;-76
2023/12/26 01:48:43;;;;;;;0.43;0.00;;;;;;;;;;5025517;28;20029;-76
2023/12/26 01:51:09;;;;;;;0.95;0.10;;;;;;;;;;5029785;28;20030;-76
2023/12/26 01:53:38;;;;;;;0.00;0.00;;;;;;;;;;5030553;28;20091;-76
2023/12/26 01:56:04;;;;;;;0.30;0.10;;;;;;;;;;5029653;28;20091;-75
2023/12/26 01:58:30;;;;;;;0.30;0.10;;;;;;;;;;5034330;28;20059;-75
2023/12/26 02:00:55;;;;;;;0.40;0.05;;;;;;;;;;5022466;28;20042;-76
2023/12/26 02:03:20;;;;;;;0.10;0.00;;;;;;;;;;5032149;28;20033;-76
2023/12/26 02:05:46;;;;;;;0.10;0.00;;;;;;;;;;5030904;28;20029;-76
2023/12/26 02:08:13;;;;;;;0.00;0.00;;;;;;;;;;5028165;28;20101;-76
2023/12/26 02:10:38;;;;;;;0.00;0.00;;;;;;;;;;5028484;28;20152;-76
2023/12/26 02:13:04;;;;;;;0.20;0.00;;;;;;;;;;5025172;28;20033;-75
2023/12/26 02:15:29;;;;;;;0.08;0.00;;;;;;;;;;5028231;28;20052;-76
2023/12/26 02:17:55;;;;;;;0.03;0.03;;;;;;;;;;5031375;28;20068;-76
2023/12/26 02:20:21;;;;;;;0.20;0.00;;;;;;;;;;5029218;28;20057;-77
2023/12/26 02:22:46;;;;;;;0.17;0.00;;;;;;;;;;5028114;28;20056;-78
2023/12/26 02:25:12;;;;;;;0.00;0.00;;;;;;;;;;5030611;28;20160;-77
2023/12/26 02:27:38;;;;;;;0.00;0.00;;;;;;;;;;5026658;28;20698;-77
2023/12/26 02:30:05;;;;;;;0.30;0.10;;;;;;;;;;5028698;28;20052;-77
2023/12/26 02:32:33;;;;;;;0.20;0.00;;;;;;;;;;5031020;28;20044;-78
2023/12/26 02:35:00;;;;;;;0.38;0.03;;;;;;;;;;5029951;28;20037;-77
2023/12/26 02:37:26;;;;;;;0.20;0.00;;;;;;;;;;5028290;28;20500;-77
2023/12/26 02:39:51;;;;;;;0.50;0.00;;;;;;;;;;5025203;28;20120;-77
2023/12/26 02:42:17;;;;;;;0.03;0.00;;;;;;;;;;5027985;28;20037;-77
2023/12/26 02:44:42;;;;;;;0.55;0.10;;;;;;;;;;5028192;28;20025;-77
2023/12/26 02:47:08;;;;;;;0.10;0.00;;;;;;;;;;5029470;28;20032;-78
2023/12/26 02:49:33;;;;;;;0.50;0.10;;;;;;;;;;5031435;28;20138;-77
2023/12/26 02:51:59;;;;;;;0.35;0.08;;;;;;;;;;5026714;28;20602;-78
2023/12/26 02:54:24;;;;;;;0.00;0.00;;;;;;;;;;5029287;28;20017;-78
2023/12/26 02:56:49;;;;;;;1.15;0.10;;;;;;;;;;5022430;28;20030;-77
2023/12/26 02:59:15;;;;;;;0.15;0.10;;;;;;;;;;5029977;28;20034;-78
2023/12/26 03:01:43;;;;;;;2.17;0.10;;;;;;;;;;5029856;28;20108;-77
2023/12/26 03:04:08;;;;;;;0.52;0.00;;;;;;;;;;5028869;28;20410;-78
2023/12/26 03:06:33;;;;;;;0.00;0.00;;;;;;;;;;5027427;28;20033;-77
2023/12/26 03:08:58;;;;;;;0.10;0.10;;;;;;;;;;5022234;28;20275;-77
2023/12/26 03:11:24;;;;;;;0.20;0.10;;;;;;;;;;5030527;28;20056;-77
2023/12/26 03:13:49;;;;;;;1.40;0.10;;;;;;;;;;5030848;28;20064;-77
2023/12/26 03:16:14;;;;;;;0.70;0.10;;;;;;;;;;5028922;28;20046;-78
2023/12/26 03:18:39;;;;;;;0.95;0.10;;;;;;;;;;5029537;28;20033;-78
2023/12/26 03:21:04;;;;;;;0.20;0.10;;;;;;;;;;5022626;28;20029;-78
2023/12/26 03:23:30;;;;;;;0.00;0.00;;;;;;;;;;5030664;28;20433;-78
2023/12/26 03:25:55;;;;;;;0.35;0.08;;;;;;;;;;5023119;28;20032;-78
2023/12/26 03:28:20;;;;;;;0.47;0.10;;;;;;;;;;5025407;28;20052;-78
2023/12/26 03:30:45;;;;;;;0.47;0.20;;;;;;;;;;5028714;28;20091;-78
2023/12/26 03:33:10;;;;;;;1.20;0.10;;;;;;;;;;5023793;28;20077;-78
2023/12/26 03:35:35;;;;;;;0.10;0.10;;;;;;;;;;5026062;28;20061;-78
2023/12/26 03:38:01;;;;;;;0.10;0.10;;;;;;;;;;5020960;28;20128;-78
2023/12/26 03:40:26;;;;;;;0.13;0.10;;;;;;;;;;5026358;28;20528;-78
2023/12/26 03:42:51;;;;;;;0.22;0.10;;;;;;;;;;5029908;28;20036;-78
2023/12/26 03:45:16;;;;;;;0.08;0.05;;;;;;;;;;5025759;28;20494;-78
2023/12/26 03:47:42;;;;;;;0.15;0.10;;;;;;;;;;5024731;28;20033;-78
2023/12/26 03:50:07;;;;;;;1.33;0.10;;;;;;;;;;5024640;28;20053;-78
2023/12/26 03:52:33;;;;;;;0.13;0.00;;;;;;;;;;5021868;28;20048;-77
2023/12/26 03:54:58;;;;;;;0.20;0.00;;;;;;;;;;5028743;28;20076;-76
2023/12/26 03:57:23;;;;;;;1.23;0.10;;;;;;;;;;5028919;28;20022;-77
2023/12/26 03:59:49;;;;;;;0.40;0.20;;;;;;;;;;5025687;28;20500;-76
2023/12/26 04:02:15;;;;;;;0.93;0.50;;;;;;;;;;5025568;28;20283;-76
2023/12/26 04:04:41;;;;;;;0.50;0.10;;;;;;;;;;5022378;28;20082;-76
2023/12/26 04:07:06;;;;;;;0.30;0.10;;;;;;;;;;5026406;28;20068;-77
2023/12/26 04:09:31;;;;;;;0.20;0.10;;;;;;;;;;5030040;28;20032;-75
2023/12/26 04:11:56;;;;;;;0.25;0.10;;;;;;;;;;5026084;28;20037;-76
2023/12/26 04:14:22;;;;;;;0.15;0.10;;;;;;;;;;5024127;28;20029;-77
2023/12/26 04:16:48;;;;;;;0.10;0.10;;;;;;;;;;5027963;28;20124;-77
2023/12/26 04:19:13;;;;;;;1.30;0.22;;;;;;;;;;5020931;28;20113;-76
2023/12/26 04:21:38;;;;;;;1.25;0.10;;;;;;;;;;5021578;28;20402;-77
2023/12/26 04:24:04;;;;;;;0.95;0.20;;;;;;;;;;5028116;28;20025;-76
2023/12/26 04:26:29;;;;;;;1.10;0.20;;;;;;;;;;5029842;28;20112;-77
2023/12/26 04:28:54;;;;;;;0.28;0.10;;;;;;;;;;5029284;28;20029;-78
2023/12/26 04:31:20;;;;;;;0.68;0.30;;;;;;;;;;5024695;28;20456;-78
2023/12/26 04:33:45;;;;;;;0.22;0.10;;;;;;;;;;5020543;28;20030;-78
2023/12/26 04:36:11;;;;;;;0.80;0.20;;;;;;;;;;5027735;28;20026;-78
2023/12/26 04:38:36;;;;;;;0.30;0.10;;;;;;;;;;5029156;28;20815;-78
2023/12/26 04:41:02;;;;;;;0.20;0.10;;;;;;;;;;5024296;28;20030;-78
2023/12/26 04:43:27;;;;;;;1.45;0.22;;;;;;;;;;5029148;28;20040;-78
2023/12/26 04:45:52;;;;;;;0.30;0.10;;;;;;;;;;5009858;28;20526;-78
2023/12/26 04:48:18;;;;;;;0.50;0.20;;;;;;;;;;5021711;28;20394;-78
2023/12/26 04:50:43;;;;;;;0.93;0.10;;;;;;;;;;5029517;28;20419;-78
2023/12/26 04:53:10;;;;;;;0.13;0.00;;;;;;;;;;5026982;28;20834;-78
2023/12/26 04:55:35;;;;;;;0.20;0.05;;;;;;;;;;5029600;28;20026;-78
2023/12/26 04:58:01;;;;;;;1.23;0.10;;;;;;;;;;5026633;28;20022;-79
2023/12/26 05:00:26;;;;;;;0.30;0.10;;;;;;;;;;5022281;28;20401;-78
2023/12/26 05:02:53;;;;;;;0.20;0.10;;;;;;;;;;5024039;28;20027;-78
2023/12/26 05:05:18;;;;;;;1.00;0.30;;;;;;;;;;5025707;28;20112;-78
2023/12/26 05:07:43;;;;;;;0.00;0.00;;;;;;;;;;5017678;28;20084;-78
2023/12/26 05:10:09;;;;;;;0.35;0.10;;;;;;;;;;5014624;28;20033;-78
2023/12/26 05:12:34;;;;;;;0.43;0.10;;;;;;;;;;5023616;28;20402;-77
2023/12/26 05:14:59;;;;;;;0.65;0.10;;;;;;;;;;5022689;28;20040;-78
2023/12/26 05:17:24;;;;;;;0.20;0.10;;;;;;;;;;5036526;28;20029;-78
2023/12/26 05:19:50;;;;;;;1.70;0.10;;;;;;;;;;5021402;28;20060;-79
2023/12/26 05:22:15;;;;;;;0.35;0.10;;;;;;;;;;5022656;28;20113;-78
2023/12/26 05:24:40;;;;;;;0.00;0.00;;;;;;;;;;5015021;28;20049;-78
2023/12/26 05:27:05;;;;;;;0.20;0.05;;;;;;;;;;5034265;28;20030;-78
2023/12/26 05:29:31;;;;;;;0.20;0.05;;;;;;;;;;5023673;28;20030;-78
2023/12/26 05:31:56;;;;;;;3.33;0.17;;;;;;;;;;5021683;28;20034;-78
2023/12/26 05:34:21;;;;;;;1.40;0.10;;;;;;;;;;5024007;28;20079;-78
2023/12/26 05:36:48;;;;;;;0.20;0.10;;;;;;;;;;5019663;28;20074;-78
2023/12/26 05:39:13;;;;;;;0.20;0.10;;;;;;;;;;5014725;28;20495;-78
2023/12/26 05:41:42;;;;;;;0.77;0.20;;;;;;;;;;5018877;28;20033;-77
2023/12/26 05:44:08;;;;;;;0.00;0.00;;;;;;;;;;5026376;28;20033;-79
2023/12/26 05:46:33;;;;;;;0.25;0.00;;;;;;;;;;5024518;28;20026;-78
2023/12/26 05:48:59;;;;;;;0.20;0.03;;;;;;;;;;5021759;28;20441;-78
2023/12/26 05:51:25;;;;;;;1.08;0.08;;;;;;;;;;5024184;28;20021;-78
2023/12/26 05:53:50;;;;;;;0.75;0.08;;;;;;;;;;5024262;28;20461;-78
2023/12/26 05:56:16;;;;;;;0.13;0.00;;;;;;;;;;5026820;28;20036;-78
2023/12/26 05:58:41;;;;;;;0.10;0.00;;;;;;;;;;5028134;28;20033;-78
2023/12/26 06:01:10;;;;;;;0.73;0.10;;;;;;;;;;5020618;28;20046;-79
2023/12/26 06:03:37;;;;;;;5.93;0.32;;;;;;;;;;5029345;28;20092;-78
2023/12/26 06:06:02;;;;;;;0.35;0.00;;;;;;;;;;5022072;28;20113;-79
2023/12/26 06:08:28;;;;;;;0.10;0.08;;;;;;;;;;5024506;28;20076;-78
2023/12/26 06:10:53;;;;;;;0.30;0.05;;;;;;;;;;5014463;28;20124;-78
2023/12/26 06:13:18;;;;;;;0.10;0.10;;;;;;;;;;5024948;28;20083;-77
2023/12/26 06:15:45;;;;;;;0.15;0.00;;;;;;;;;;5021163;28;20026;-78
2023/12/26 06:18:10;;;;;;;0.00;0.00;;;;;;;;;;5022577;28;20099;-78
2023/12/26 06:20:36;;;;;;;0.35;0.08;;;;;;;;;;5020662;28;20025;-77
2023/12/26 06:23:02;;;;;;;0.17;0.00;;;;;;;;;;5022277;28;20156;-79
2023/12/26 06:25:28;;;;;;;0.30;0.00;;;;;;;;;;5020374;28;20068;-78
2023/12/26 06:27:53;;;;;;;0.57;0.10;;;;;;;;;;5028386;28;20029;-78
2023/12/26 06:30:18;;;;;;;0.00;0.00;;;;;;;;;;5009039;28;20137;-78
2023/12/26 06:32:44;;;;;;;1.30;0.10;;;;;;;;;;5002959;28;20037;-78
2023/12/26 06:35:09;;;;;;;0.00;0.00;;;;;;;;;;5025385;28;20029;-78
2023/12/26 06:37:34;;;;;;;0.00;0.00;;;;;;;;;;5019483;28;20464;-77
2023/12/26 06:40:00;;;;;;;0.00;0.00;;;;;;;;;;5020383;28;20036;-78
2023/12/26 06:42:26;;;;;;;0.15;0.00;;;;;;;;;;5006447;28;20025;-79
2023/12/26 06:44:51;;;;;;;2.05;0.20;;;;;;;;;;5019951;28;20029;-78
2023/12/26 06:47:17;;;;;;;1.85;0.10;;;;;;;;;;5021096;28;20113;-78
2023/12/26 06:49:44;;;;;;;0.10;0.00;;;;;;;;;;5019553;28;20121;-77
2023/12/26 06:52:11;;;;;;;0.05;0.00;;;;;;;;;;5021650;28;20124;-78
2023/12/26 06:54:36;;;;;;;0.00;0.00;;;;;;;;;;5020474;28;20468;-78
2023/12/26 06:57:07;;;;;;;0.00;0.00;;;;;;;;;;5019203;28;20068;-79
2023/12/26 06:59:32;;;;;;;0.35;0.00;;;;;;;;;;5026286;28;20038;-77
2023/12/26 07:01:57;;;;;;;0.20;0.03;;;;;;;;;;5018726;28;20110;-78
2023/12/26 07:04:22;;;;;;;0.10;0.00;;;;;;;;;;5023474;28;20041;-78
2023/12/26 07:06:48;;;;;;;0.30;0.10;;;;;;;;;;5019130;28;20072;-78
2023/12/26 07:09:13;;;;;;;0.95;0.10;;;;;;;;;;5020989;28;20034;-78
2023/12/26 07:11:39;;;;;;;0.97;0.10;;;;;;;;;;5020624;28;20142;-78
2023/12/26 07:14:04;;;;;;;0.15;0.00;;;;;;;;;;5016951;28;20284;-78
2023/12/26 07:16:29;;;;;;;0.32;0.10;;;;;;;;;;5020873;28;20032;-78
2023/12/26 07:18:54;;;;;;;0.57;0.20;;;;;;;;;;5013652;28;20034;-78
2023/12/26 07:21:20;;;;;;;0.32;0.00;;;;;;;;;;5014785;28;20037;-78
2023/12/26 07:23:46;;;;;;;0.00;0.00;;;;;;;;;;5020136;28;20037;-78
2023/12/26 07:26:12;;;;;;;0.10;0.00;;;;;;;;;;5019535;28;20892;-78
2023/12/26 07:28:37;;;;;;;0.32;0.10;;;;;;;;;;5025952;28;20062;-76
2023/12/26 07:31:02;;;;;;;0.20;0.00;;;;;;;;;;5014821;28;20026;-76
2023/12/26 07:33:27;;;;;;;0.75;0.22;;;;;;;;;;5013742;28;20272;-76
2023/12/26 07:35:57;;;;;;;0.30;0.10;;;;;;;;;;5016093;28;20423;-76
2023/12/26 07:38:22;;;;;;;0.30;0.10;;;;;;;;;;5021375;28;20081;-76
2023/12/26 07:40:47;;;;;;;1.65;0.00;;;;;;;;;;5021669;28;20061;-76
2023/12/26 07:43:13;;;;;;;0.25;0.10;;;;;;;;;;5017032;28;20029;-76
2023/12/26 07:45:38;;;;;;;0.20;0.10;;;;;;;;;;5024437;28;20033;-76
2023/12/26 07:48:03;;;;;;;0.00;0.00;;;;;;;;;;5018998;28;20033;-74
2023/12/26 07:50:29;;;;;;;0.63;0.20;;;;;;;;;;5022982;28;20021;-76
2023/12/26 07:52:54;;;;;;;0.20;0.05;;;;;;;;;;5026141;28;20030;-76
2023/12/26 07:55:19;;;;;;;2.92;0.10;;;;;;;;;;5018703;28;20494;-76
2023/12/26 07:57:44;;;;;;;0.32;0.10;;;;;;;;;;5020774;28;20163;-75
2023/12/26 08:00:10;;;;;;;1.05;0.47;;;;;;;;;;5016828;28;20045;-76
2023/12/26 08:02:38;;;;;;;1.45;0.10;;;;;;;;;;5011822;28;20112;-76
2023/12/26 08:05:04;;;;;;;0.35;0.17;;;;;;;;;;5018937;28;20111;-74
2023/12/26 08:07:29;;;;;;;1.80;0.17;;;;;;;;;;5021279;28;20021;-76
2023/12/26 08:09:54;;;;;;;0.05;0.00;;;;;;;;;;5020605;28;20035;-75
2023/12/26 08:12:20;;;;;;;0.40;0.10;;;;;;;;;;5019584;28;20491;-76
2023/12/26 08:14:46;;;;;;;0.82;0.10;;;;;;;;;;5012982;28;20041;-77
2023/12/26 08:17:12;;;;;;;0.70;0.10;;;;;;;;;;5016346;28;20045;-76
2023/12/26 08:19:37;;;;;;;3.03;0.08;;;;;;;;;;5029018;28;20042;-76
2023/12/26 08:22:02;;;;;;;0.68;0.20;;;;;;;;;;5020035;28;20042;-77
2023/12/26 08:24:28;;;;;;;0.70;0.22;;;;;;;;;;5022859;28;20033;-77
2023/12/26 08:26:53;;;;;;;1.00;0.20;;;;;;;;;;5014077;28;20042;-77
2023/12/26 08:29:18;;;;;;;1.80;0.40;;;;;;;;;;5026355;28;20049;-77
2023/12/26 08:31:43;;;;;;;3.92;0.40;;;;;;;;;;5016160;28;20030;-77
2023/12/26 08:34:09;;;;;;;1.27;0.40;;;;;;;;;;5019861;28;20038;-77
2023/12/26 08:36:34;;;;;;;4.95;0.77;;;;;;;;;;5022290;28;20026;-77
2023/12/26 08:38:59;;;;;;;1.73;0.40;;;;;;;;;;5017084;28;20117;-77
2023/12/26 08:41:24;;;;;;;1.80;0.45;;;;;;;;;;5017739;28;20045;-77
2023/12/26 08:43:49;;;;;;;1.42;0.30;;;;;;;;;;5021002;28;20041;-77
2023/12/26 08:46:16;;;;;;;2.95;0.68;;;;;;;;;;5023089;28;20029;-77
2023/12/26 08:48:41;;;;;;;1.85;0.30;;;;;;;;;;5030269;28;20029;-78
2023/12/26 08:51:06;;;;;;;3.47;0.60;;;;;;;;;;5026018;28;20034;-77
2023/12/26 08:53:31;;;;;;;1.42;0.40;;;;;;;;;;5029862;28;20022;-77
2023/12/26 08:55:57;;;;;;;2.13;0.35;;;;;;;;;;5021855;28;20081;-77
2023/12/26 08:58:22;;;;;;;2.13;0.50;;;;;;;;;;5027328;28;20025;-77
2023/12/26 09:00:47;;;;;;;5.32;0.70;;;;;;;;;;5026956;28;20466;-77
2023/12/26 09:03:12;;;;;;;3.50;0.70;;;;;;;;;;5027583;28;20029;-78
2023/12/26 09:05:38;;;;;;;3.83;0.95;;;;;;;;;;5029819;28;20041;-78
2023/12/26 09:08:04;;;;;;;2.08;0.77;;;;;;;;;;5005738;28;20030;-77
2023/12/26 09:10:29;;;;;;;3.97;0.93;;;;;;;;;;5023225;28;20026;-78
2023/12/26 09:12:54;;;;;;;3.92;0.70;;;;;;;;;;5023708;28;20033;-78
2023/12/26 09:15:19;;;;;;;3.53;1.10;;;;;;;;;;5028801;28;20034;-78
2023/12/26 09:17:44;;;;;;;4.35;0.70;;;;;;;;;;5034281;28;20068;-78
2023/12/26 09:20:10;;;;;;;2.40;1.10;;;;;;;;;;5028309;28;20062;-77
2023/12/26 09:22:35;;;;;;;3.30;0.70;;;;;;;;;;5033113;28;20106;-78
2023/12/26 09:25:00;;;;;;;4.40;1.20;;;;;;;;;;5025223;28;20026;-78
2023/12/26 09:27:26;;;;;;;2.35;0.95;;;;;;;;;;5033923;28;20602;-78
2023/12/26 09:29:51;;;;;;;3.75;1.00;;;;;;;;;;5034544;28;20044;-77
2023/12/26 09:32:16;;;;;;;5.97;1.20;;;;;;;;;;5030419;28;20040;-78
2023/12/26 09:34:41;;;;;;;3.13;0.93;;;;;;;;;;5030817;28;20083;-78
2023/12/26 09:37:06;;;;;;;4.07;1.10;;;;;;;;;;5024666;28;20406;-78
2023/12/26 09:39:32;;;;;;;5.22;1.60;;;;;;;;;;5032049;28;20046;-79
2023/12/26 09:41:57;;;;;;;6.30;1.45;;;;;;;;;;5030278;28;20111;-79
2023/12/26 09:44:23;;;;;;;2.85;0.80;;;;;;;;;;5032855;28;20050;-79
2023/12/26 09:46:48;;;;;;;2.47;0.55;;;;;;;;;;5034148;28;20037;-79
2023/12/26 09:49:14;;;;;;;2.72;0.60;;;;;;;;;;5026836;28;20450;-79
2023/12/26 09:51:43;;;;;;;3.25;0.85;;;;;;;;;;5032592;28;20117;-79
2023/12/26 09:54:09;;;;;;;4.30;0.70;;;;;;;;;;5027990;28;20050;-79
2023/12/26 09:56:36;;;;;;;2.35;0.38;;;;;;;;;;5032746;28;20059;-79
2023/12/26 09:59:03;;;;;;;5.30;0.50;;;;;;;;;;5030930;28;20026;-79
2023/12/26 10:01:28;;;;;;;1.95;0.50;;;;;;;;;;5029739;28;20103;-79
2023/12/26 10:03:55;;;;;;;3.20;0.60;;;;;;;;;;5029346;28;20053;-79
2023/12/26 10:06:21;;;;;;;2.53;0.70;;;;;;;;;;5009797;28;20038;-79
2023/12/26 10:08:47;;;;;;;2.53;0.82;;;;;;;;;;5031608;28;20037;-79
2023/12/26 10:11:13;;;;;;;1.52;0.70;;;;;;;;;;5032429;28;20041;-79
2023/12/26 10:13:42;;;;;;;4.30;0.73;;;;;;;;;;5032760;28;20048;-78
2023/12/26 10:16:07;;;;;;;1.63;0.55;;;;;;;;;;5031686;28;20029;-79
2023/12/26 10:18:33;;;;;;;3.13;0.63;;;;;;;;;;5034045;28;20040;-79
2023/12/26 10:20:58;;;;;;;2.53;0.70;;;;;;;;;;5007959;28;20391;-79
2023/12/26 10:23:23;;;;;;;3.10;0.80;;;;;;;;;;5030143;28;20113;-79
2023/12/26 10:25:49;;;;;;;4.40;0.95;;;;;;;;;;5034877;28;20486;-79
2023/12/26 10:28:15;;;;;;;1.95;0.47;;;;;;;;;;5032106;28;20053;-79
2023/12/26 10:30:41;;;;;;;3.17;0.85;;;;;;;;;;5031236;28;20500;-79
2023/12/26 10:33:06;;;;;;;3.78;0.68;;;;;;;;;;5028426;28;20030;-79
2023/12/26 10:35:33;;;;;;;1.52;0.50;;;;;;;;;;5010759;28;20029;-79
2023/12/26 10:37:58;;;;;;;1.73;0.82;;;;;;;;;;5030863;28;20038;-79
2023/12/26 10:40:24;;;;;;;1.30;0.50;;;;;;;;;;5032720;28;20037;-79
2023/12/26 10:42:50;;;;;;;1.38;0.50;;;;;;;;;;5031939;28;20037;-79
2023/12/26 10:45:17;;;;;;;2.90;0.82;;;;;;;;;;5028170;28;20029;-78
2023/12/26 10:47:43;;;;;;;1.65;0.70;;;;;;;;;;5028433;28;20040;-78
2023/12/26 10:50:10;;;;;;;3.78;0.68;;;;;;;;;;5009210;28;20406;-79
2023/12/26 10:52:39;;;;;;;3.75;0.70;;;;;;;;;;5034141;28;20052;-79
2023/12/26 10:55:05;;;;;;;1.25;0.60;;;;;;;;;;5030633;28;20040;-78
2023/12/26 10:57:32;;;;;;;1.88;0.68;;;;;;;;;;5030991;28;20033;-78
2023/12/26 10:59:57;;;;;;;2.95;0.80;;;;;;;;;;5028194;28;20049;-78
2023/12/26 11:02:22;;;;;;;3.85;0.90;;;;;;;;;;5027814;28;20130;-78
2023/12/26 11:04:48;;;;;;;3.25;1.20;;;;;;;;;;5027562;28;20033;-78
2023/12/26 11:07:13;;;;;;;3.17;0.60;;;;;;;;;;5032486;28;20064;-79
2023/12/26 11:09:39;;;;;;;2.35;0.70;;;;;;;;;;5034190;28;20030;-78
2023/12/26 11:12:04;;;;;;;2.28;0.77;;;;;;;;;;5027677;28;20094;-78
2023/12/26 11:14:30;;;;;;;3.17;0.60;;;;;;;;;;5030342;28;20061;-78
2023/12/26 11:16:55;;;;;;;0.40;0.20;;;;;;;;;;5008441;28;20116;-78
2023/12/26 11:19:20;;;;;;;1.88;0.47;;;;;;;;;;5031449;28;20510;-78
2023/12/26 11:21:45;;;;;;;1.83;0.40;;;;;;;;;;5032600;28;20091;-78
2023/12/26 11:24:10;;;;;;;2.25;0.60;;;;;;;;;;5027992;28;20116;-78
2023/12/26 11:26:36;;;;;;;4.40;0.80;;;;;;;;;;5030347;28;20117;-78
2023/12/26 11:29:04;;;;;;;1.80;0.60;;;;;;;;;;5031587;28;20031;-78
2023/12/26 11:31:29;;;;;;;0.73;0.30;;;;;;;;;;5026012;28;20090;-78
2023/12/26 11:33:54;;;;;;;2.03;0.38;;;;;;;;;;5029521;28;20636;-78
2023/12/26 11:36:20;;;;;;;1.88;0.45;;;;;;;;;;5029166;28;20046;-78
2023/12/26 11:38:45;;;;;;;2.22;0.50;;;;;;;;;;5030865;28;20033;-77
2023/12/26 11:41:11;;;;;;;1.27;0.10;;;;;;;;;;5025633;28;20132;-78
2023/12/26 11:43:37;;;;;;;4.10;0.52;;;;;;;;;;5026653;28;20067;-78
2023/12/26 11:46:03;;;;;;;3.08;0.50;;;;;;;;;;5025173;28;20026;-78
2023/12/26 11:48:28;;;;;;;3.85;0.40;;;;;;;;;;5030318;28;20103;-78
2023/12/26 11:50:53;;;;;;;3.42;0.65;;;;;;;;;;5029972;28;20441;-77
2023/12/26 11:53:18;;;;;;;2.15;0.30;;;;;;;;;;5024906;28;20478;-78
2023/12/26 11:55:43;;;;;;;3.40;0.40;;;;;;;;;;5038902;28;20029;-77
2023/12/26 11:58:08;;;;;;;2.53;0.47;;;;;;;;;;5027447;28;20025;-77
2023/12/26 12:00:34;;;;;;;2.67;0.40;;;;;;;;;;5029684;28;20034;-77
2023/12/26 12:02:59;;;;;;;2.22;0.75;;;;;;;;;;5029572;28;20076;-77
2023/12/26 12:05:24;;;;;;;1.55;0.32;;;;;;;;;;5026842;28;20546;-77
2023/12/26 12:08:11;;;;;;;1.40;0.50;;;;;;;;;;5029532;28;20055;-77
2023/12/26 12:10:37;;;;;;;2.50;0.47;;;;;;;;;;5024219;28;20879;-77
2023/12/26 12:13:02;;;;;;;3.15;0.65;;;;;;;;;;5020589;28;20054;-77
2023/12/26 12:15:27;;;;;;;1.50;0.47;;;;;;;;;;5029249;28;20036;-77
2023/12/26 12:17:52;;;;;;;1.33;0.30;;;;;;;;;;5012741;28;20482;-77
2023/12/26 12:20:17;;;;;;;4.22;0.55;;;;;;;;;;5030675;28;20107;-77
2023/12/26 12:22:42;;;;;;;1.65;0.38;;;;;;;;;;5025561;28;20041;-77
2023/12/26 12:25:14;;;;;;;3.67;0.55;;;;;;;;;;5021681;28;20026;-77
2023/12/26 12:27:39;;;;;;;1.92;0.55;;;;;;;;;;5024425;28;20041;-77
2023/12/26 12:30:04;;;;;;;2.00;0.60;;;;;;;;;;5030620;28;20056;-77
2023/12/26 12:32:33;;;;;;;3.08;0.77;;;;;;;;;;5027027;28;20280;-78
2023/12/26 12:35:17;;;;;;;3.08;0.85;;;;;;;;;;5026221;28;20037;-77
2023/12/26 12:37:45;;;;;;;1.92;0.63;;;;;;;;;;5024687;28;20061;-78
2023/12/26 12:40:10;;;;;;;2.53;0.38;;;;;;;;;;5026602;28;20397;-79
2023/12/26 12:42:38;;;;;;;1.67;0.60;;;;;;;;;;5026392;28;20041;-78
2023/12/26 12:45:04;;;;;;;2.42;0.52;;;;;;;;;;5028950;28;20280;-79
2023/12/26 12:47:30;;;;;;;3.92;1.35;;;;;;;;;;5025171;28;20041;-79
2023/12/26 12:49:55;;;;;;;2.92;0.80;;;;;;;;;;5029982;28;20025;-79
2023/12/26 12:52:20;;;;;;;1.38;0.40;;;;;;;;;;5028284;28;20045;-79
2023/12/26 12:54:46;;;;;;;4.97;0.77;;;;;;;;;;5025493;28;20087;-79
2023/12/26 12:57:11;;;;;;;3.23;0.77;;;;;;;;;;5030190;28;20026;-79
2023/12/26 12:59:36;;;;;;;2.95;0.55;;;;;;;;;;5034874;28;20283;-79
2023/12/26 13:02:01;;;;;;;4.95;0.88;;;;;;;;;;5031865;28;20114;-78
2023/12/26 13:04:27;;;;;;;3.75;0.82;;;;;;;;;;5028281;28;20467;-79
2023/12/26 13:06:52;;;;;;;3.17;0.63;;;;;;;;;;5027456;28;20123;-79
2023/12/26 13:09:17;;;;;;;3.40;0.60;;;;;;;;;;5024361;28;20030;-78
2023/12/26 13:11:42;;;;;;;4.07;0.68;;;;;;;;;;5033223;28;20050;-79
2023/12/26 13:14:14;;;;;;;4.82;0.50;;;;;;;;;;5030873;28;20168;-79
2023/12/26 13:16:40;;;;;;;2.67;0.82;;;;;;;;;;5028728;28;20112;-78
2023/12/26 13:19:05;;;;;;;2.92;0.68;;;;;;;;;;5026531;28;20045;-79
2023/12/26 13:21:30;;;;;;;2.45;0.52;;;;;;;;;;5030914;28;20032;-79
2023/12/26 13:23:55;;;;;;;2.78;0.50;;;;;;;;;;5025174;28;20068;-79
2023/12/26 13:26:20;;;;;;;4.47;0.93;;;;;;;;;;5030954;28;20040;-79
2023/12/26 13:28:45;;;;;;;4.65;0.70;;;;;;;;;;5032595;28;20275;-77
2023/12/26 13:31:11;;;;;;;5.53;0.50;;;;;;;;;;5028071;28;20033;-76
2023/12/26 13:33:36;;;;;;;3.72;0.50;;;;;;;;;;5032589;28;20276;-79
2023/12/26 13:36:01;;;;;;;3.10;0.70;;;;;;;;;;5026783;28;20030;-79
2023/12/26 13:38:26;;;;;;;2.85;0.65;;;;;;;;;;5028057;28;20034;-78
2023/12/26 13:40:52;;;;;;;2.60;0.60;;;;;;;;;;5032214;28;20029;-79
2023/12/26 13:43:17;;;;;;;3.22;0.73;;;;;;;;;;5029077;28;20033;-79
2023/12/26 13:45:42;;;;;;;5.63;0.70;;;;;;;;;;5032625;28;20114;-79
2023/12/26 13:48:07;;;;;;;3.73;1.00;;;;;;;;;;5024935;28;20630;-79
2023/12/26 13:50:32;;;;;;;2.90;0.85;;;;;;;;;;5025854;28;20383;-79
2023/12/26 13:52:58;;;;;;;4.35;0.98;;;;;;;;;;5032035;28;20494;-79
2023/12/26 13:55:23;;;;;;;2.42;0.60;;;;;;;;;;5030479;28;20068;-78
2023/12/26 13:57:48;;;;;;;2.80;0.63;;;;;;;;;;5030875;28;20025;-79
2023/12/26 14:00:13;;;;;;;3.88;0.70;;;;;;;;;;5029471;28;20056;-79
2023/12/26 14:02:38;;;;;;;3.33;0.80;;;;;;;;;;5030847;28;20025;-79
2023/12/26 14:05:04;;;;;;;4.15;0.75;;;;;;;;;;5025801;28;20473;-78
2023/12/26 14:07:31;;;;;;;2.58;0.70;;;;;;;;;;5030297;28;20068;-78
2023/12/26 14:09:56;;;;;;;4.95;0.75;;;;;;;;;;5031705;28;20026;-79
2023/12/26 14:12:21;;;;;;;6.18;0.70;;;;;;;;;;5026773;28;20128;-79
2023/12/26 14:14:46;;;;;;;3.00;0.60;;;;;;;;;;5030366;28;20052;-79
2023/12/26 14:17:12;;;;;;;2.85;0.40;;;;;;;;;;5022559;28;20038;-79
2023/12/26 14:19:37;;;;;;;2.42;0.40;;;;;;;;;;5031806;28;20052;-78
2023/12/26 14:22:03;;;;;;;2.20;0.63;;;;;;;;;;5031404;28;20393;-78
2023/12/26 14:24:28;;;;;;;4.80;0.70;;;;;;;;;;5028565;28;20406;-78
2023/12/26 14:26:53;;;;;;;3.70;0.90;;;;;;;;;;5028662;28;20160;-78
2023/12/26 14:29:18;;;;;;;6.35;1.15;;;;;;;;;;5024543;28;20044;-79
2023/12/26 14:31:44;;;;;;;2.67;1.00;;;;;;;;;;5028710;28;20068;-79
2023/12/26 14:34:09;;;;;;;3.63;0.90;;;;;;;;;;5031825;28;20183;-78